sensor_id;sensor_type;location;lat;lon;timestamp;P1;durP1;ratioP1;P2;durP2;ratioP2
55762;SDS011;42162;51.958;5.426;2023-11-19T00:01:10;16.42;;;5.95;;
55762;SDS011;42162;51.958;5.426;2023-11-19T00:03:37;13.75;;;5.53;;
55762;SDS011;42162;51.958;5.426;2023-11-19T00:06:04;19.10;;;6.10;;
55762;SDS011;42162;51.958;5.426;2023-11-19T00:08:32;14.25;;;5.63;;
55762;SDS011;42162;51.958;5.426;2023-11-19T00:10:59;18.75;;;5.28;;
55762;SDS011;42162;51.958;5.426;2023-11-19T00:13:28;10.38;;;4.90;;
55762;SDS011;42162;51.958;5.426;2023-11-19T00:15:55;26.30;;;5.18;;
55762;SDS011;42162;51.958;5.426;2023-11-19T00:18:23;17.52;;;4.90;;
55762;SDS011;42162;51.958;5.426;2023-11-19T00:20:50;21.33;;;5.40;;
55762;SDS011;42162;51.958;5.426;2023-11-19T00:23:17;15.90;;;4.78;;
55762;SDS011;42162;51.958;5.426;2023-11-19T00:25:44;15.25;;;4.93;;
55762;SDS011;42162;51.958;5.426;2023-11-19T00:28:12;18.02;;;4.32;;
55762;SDS011;42162;51.958;5.426;2023-11-19T00:30:39;21.55;;;4.80;;
55762;SDS011;42162;51.958;5.426;2023-11-19T00:33:07;18.40;;;5.50;;
55762;SDS011;42162;51.958;5.426;2023-11-19T00:35:35;21.48;;;5.63;;
55762;SDS011;42162;51.958;5.426;2023-11-19T00:38:02;22.08;;;5.43;;
55762;SDS011;42162;51.958;5.426;2023-11-19T00:40:30;18.73;;;5.50;;
55762;SDS011;42162;51.958;5.426;2023-11-19T00:42:57;14.73;;;5.00;;
55762;SDS011;42162;51.958;5.426;2023-11-19T00:45:26;22.58;;;4.93;;
55762;SDS011;42162;51.958;5.426;2023-11-19T00:47:54;23.33;;;4.88;;
55762;SDS011;42162;51.958;5.426;2023-11-19T00:50:21;16.73;;;4.18;;
55762;SDS011;42162;51.958;5.426;2023-11-19T00:52:49;21.30;;;4.70;;
55762;SDS011;42162;51.958;5.426;2023-11-19T00:55:17;26.55;;;5.55;;
55762;SDS011;42162;51.958;5.426;2023-11-19T00:57:44;29.50;;;5.53;;
55762;SDS011;42162;51.958;5.426;2023-11-19T01:00:11;26.92;;;5.30;;
55762;SDS011;42162;51.958;5.426;2023-11-19T01:02:47;30.25;;;4.88;;
55762;SDS011;42162;51.958;5.426;2023-11-19T01:05:18;27.65;;;4.40;;
55762;SDS011;42162;51.958;5.426;2023-11-19T01:07:48;22.27;;;4.10;;
55762;SDS011;42162;51.958;5.426;2023-11-19T01:10:18;19.27;;;4.35;;
55762;SDS011;42162;51.958;5.426;2023-11-19T01:12:46;30.65;;;5.47;;
55762;SDS011;42162;51.958;5.426;2023-11-19T01:15:13;31.42;;;3.88;;
55762;SDS011;42162;51.958;5.426;2023-11-19T01:17:40;19.15;;;4.00;;
55762;SDS011;42162;51.958;5.426;2023-11-19T01:20:19;19.55;;;3.75;;
55762;SDS011;42162;51.958;5.426;2023-11-19T01:22:48;33.80;;;4.38;;
55762;SDS011;42162;51.958;5.426;2023-11-19T01:25:16;19.98;;;4.13;;
55762;SDS011;42162;51.958;5.426;2023-11-19T01:27:44;17.98;;;4.18;;
55762;SDS011;42162;51.958;5.426;2023-11-19T01:30:11;22.95;;;4.28;;
55762;SDS011;42162;51.958;5.426;2023-11-19T01:32:41;23.83;;;3.92;;
55762;SDS011;42162;51.958;5.426;2023-11-19T01:35:08;29.20;;;4.70;;
55762;SDS011;42162;51.958;5.426;2023-11-19T01:37:36;25.70;;;4.97;;
55762;SDS011;42162;51.958;5.426;2023-11-19T01:40:03;22.23;;;3.65;;
55762;SDS011;42162;51.958;5.426;2023-11-19T01:42:39;22.05;;;4.13;;
55762;SDS011;42162;51.958;5.426;2023-11-19T01:45:07;24.60;;;3.75;;
55762;SDS011;42162;51.958;5.426;2023-11-19T01:47:36;19.58;;;3.13;;
55762;SDS011;42162;51.958;5.426;2023-11-19T01:50:05;21.55;;;4.13;;
55762;SDS011;42162;51.958;5.426;2023-11-19T01:52:34;26.05;;;3.75;;
55762;SDS011;42162;51.958;5.426;2023-11-19T01:55:06;24.98;;;4.50;;
55762;SDS011;42162;51.958;5.426;2023-11-19T01:57:36;26.95;;;4.43;;
55762;SDS011;42162;51.958;5.426;2023-11-19T02:00:06;36.67;;;4.25;;
55762;SDS011;42162;51.958;5.426;2023-11-19T02:02:39;31.27;;;4.55;;
55762;SDS011;42162;51.958;5.426;2023-11-19T02:05:08;25.42;;;4.30;;
55762;SDS011;42162;51.958;5.426;2023-11-19T02:07:35;36.05;;;6.15;;
55762;SDS011;42162;51.958;5.426;2023-11-19T02:10:03;32.58;;;4.50;;
55762;SDS011;42162;51.958;5.426;2023-11-19T02:12:33;25.98;;;4.32;;
55762;SDS011;42162;51.958;5.426;2023-11-19T02:15:03;34.65;;;4.53;;
55762;SDS011;42162;51.958;5.426;2023-11-19T02:17:30;33.53;;;5.72;;
55762;SDS011;42162;51.958;5.426;2023-11-19T02:19:58;35.65;;;5.75;;
55762;SDS011;42162;51.958;5.426;2023-11-19T02:22:33;37.30;;;4.82;;
55762;SDS011;42162;51.958;5.426;2023-11-19T02:25:04;25.60;;;4.68;;
55762;SDS011;42162;51.958;5.426;2023-11-19T02:30:18;24.00;;;4.78;;
55762;SDS011;42162;51.958;5.426;2023-11-19T02:32:45;36.72;;;5.70;;
55762;SDS011;42162;51.958;5.426;2023-11-19T02:35:12;39.80;;;6.35;;
55762;SDS011;42162;51.958;5.426;2023-11-19T02:37:40;38.42;;;5.45;;
55762;SDS011;42162;51.958;5.426;2023-11-19T02:40:07;42.00;;;6.18;;
55762;SDS011;42162;51.958;5.426;2023-11-19T02:42:36;32.22;;;5.13;;
55762;SDS011;42162;51.958;5.426;2023-11-19T02:45:03;36.70;;;6.43;;
55762;SDS011;42162;51.958;5.426;2023-11-19T02:47:33;61.58;;;8.13;;
55762;SDS011;42162;51.958;5.426;2023-11-19T02:50:01;42.40;;;7.47;;
55762;SDS011;42162;51.958;5.426;2023-11-19T02:52:28;34.70;;;5.97;;
55762;SDS011;42162;51.958;5.426;2023-11-19T02:54:55;51.90;;;7.22;;
55762;SDS011;42162;51.958;5.426;2023-11-19T02:57:23;38.92;;;6.57;;
55762;SDS011;42162;51.958;5.426;2023-11-19T02:59:51;51.47;;;6.50;;
55762;SDS011;42162;51.958;5.426;2023-11-19T03:02:18;46.35;;;7.32;;
55762;SDS011;42162;51.958;5.426;2023-11-19T03:04:46;34.25;;;5.85;;
55762;SDS011;42162;51.958;5.426;2023-11-19T03:07:14;55.90;;;7.50;;
55762;SDS011;42162;51.958;5.426;2023-11-19T03:09:41;46.30;;;6.82;;
55762;SDS011;42162;51.958;5.426;2023-11-19T03:12:08;43.53;;;5.88;;
55762;SDS011;42162;51.958;5.426;2023-11-19T03:14:35;56.22;;;6.30;;
55762;SDS011;42162;51.958;5.426;2023-11-19T03:17:04;42.92;;;6.47;;
55762;SDS011;42162;51.958;5.426;2023-11-19T03:19:32;52.63;;;7.68;;
55762;SDS011;42162;51.958;5.426;2023-11-19T03:21:59;50.55;;;6.10;;
55762;SDS011;42162;51.958;5.426;2023-11-19T03:24:28;26.92;;;4.70;;
55762;SDS011;42162;51.958;5.426;2023-11-19T03:26:55;40.88;;;5.95;;
55762;SDS011;42162;51.958;5.426;2023-11-19T03:29:22;53.38;;;6.68;;
55762;SDS011;42162;51.958;5.426;2023-11-19T03:31:50;62.92;;;6.97;;
55762;SDS011;42162;51.958;5.426;2023-11-19T03:34:17;41.15;;;6.45;;
55762;SDS011;42162;51.958;5.426;2023-11-19T03:36:44;41.58;;;6.55;;
55762;SDS011;42162;51.958;5.426;2023-11-19T03:39:12;31.77;;;5.35;;
55762;SDS011;42162;51.958;5.426;2023-11-19T03:41:39;48.20;;;6.63;;
55762;SDS011;42162;51.958;5.426;2023-11-19T03:44:08;48.60;;;6.75;;
55762;SDS011;42162;51.958;5.426;2023-11-19T03:46:35;42.85;;;5.93;;
55762;SDS011;42162;51.958;5.426;2023-11-19T03:49:03;46.95;;;6.05;;
55762;SDS011;42162;51.958;5.426;2023-11-19T03:51:32;35.50;;;5.22;;
55762;SDS011;42162;51.958;5.426;2023-11-19T03:54:01;43.35;;;5.75;;
55762;SDS011;42162;51.958;5.426;2023-11-19T03:56:28;39.72;;;5.25;;
55762;SDS011;42162;51.958;5.426;2023-11-19T03:58:57;41.20;;;6.90;;
55762;SDS011;42162;51.958;5.426;2023-11-19T04:01:24;40.67;;;6.97;;
55762;SDS011;42162;51.958;5.426;2023-11-19T04:03:52;46.70;;;6.78;;
55762;SDS011;42162;51.958;5.426;2023-11-19T04:06:19;32.13;;;5.32;;
55762;SDS011;42162;51.958;5.426;2023-11-19T04:08:46;35.72;;;5.70;;
55762;SDS011;42162;51.958;5.426;2023-11-19T04:11:13;40.67;;;6.25;;
55762;SDS011;42162;51.958;5.426;2023-11-19T04:13:40;33.42;;;5.40;;
55762;SDS011;42162;51.958;5.426;2023-11-19T04:16:08;42.25;;;6.47;;
55762;SDS011;42162;51.958;5.426;2023-11-19T04:18:35;46.78;;;7.03;;
55762;SDS011;42162;51.958;5.426;2023-11-19T04:21:05;53.88;;;6.82;;
55762;SDS011;42162;51.958;5.426;2023-11-19T04:23:35;36.15;;;6.22;;
55762;SDS011;42162;51.958;5.426;2023-11-19T04:26:02;40.65;;;6.90;;
55762;SDS011;42162;51.958;5.426;2023-11-19T04:28:33;37.38;;;7.07;;
55762;SDS011;42162;51.958;5.426;2023-11-19T04:31:01;46.13;;;6.35;;
55762;SDS011;42162;51.958;5.426;2023-11-19T04:33:30;41.92;;;6.00;;
55762;SDS011;42162;51.958;5.426;2023-11-19T04:35:57;44.75;;;6.55;;
55762;SDS011;42162;51.958;5.426;2023-11-19T04:38:24;47.28;;;6.18;;
55762;SDS011;42162;51.958;5.426;2023-11-19T04:40:53;52.95;;;6.47;;
55762;SDS011;42162;51.958;5.426;2023-11-19T04:43:20;49.97;;;7.15;;
55762;SDS011;42162;51.958;5.426;2023-11-19T04:45:48;39.53;;;5.25;;
55762;SDS011;42162;51.958;5.426;2023-11-19T04:48:15;49.45;;;6.38;;
55762;SDS011;42162;51.958;5.426;2023-11-19T04:50:42;42.00;;;6.20;;
55762;SDS011;42162;51.958;5.426;2023-11-19T04:53:09;40.72;;;5.60;;
55762;SDS011;42162;51.958;5.426;2023-11-19T04:55:36;42.85;;;6.30;;
55762;SDS011;42162;51.958;5.426;2023-11-19T04:58:04;43.50;;;7.53;;
55762;SDS011;42162;51.958;5.426;2023-11-19T05:00:31;35.70;;;5.40;;
55762;SDS011;42162;51.958;5.426;2023-11-19T05:02:59;34.55;;;6.07;;
55762;SDS011;42162;51.958;5.426;2023-11-19T05:05:26;37.72;;;6.93;;
55762;SDS011;42162;51.958;5.426;2023-11-19T05:07:54;43.70;;;6.47;;
55762;SDS011;42162;51.958;5.426;2023-11-19T05:10:21;30.00;;;5.88;;
55762;SDS011;42162;51.958;5.426;2023-11-19T05:12:49;43.50;;;7.40;;
55762;SDS011;42162;51.958;5.426;2023-11-19T05:15:18;35.70;;;5.72;;
55762;SDS011;42162;51.958;5.426;2023-11-19T05:17:45;38.60;;;6.05;;
55762;SDS011;42162;51.958;5.426;2023-11-19T05:20:12;35.28;;;6.63;;
55762;SDS011;42162;51.958;5.426;2023-11-19T05:22:41;38.60;;;6.65;;
55762;SDS011;42162;51.958;5.426;2023-11-19T05:25:09;50.55;;;7.50;;
55762;SDS011;42162;51.958;5.426;2023-11-19T05:27:37;58.80;;;8.52;;
55762;SDS011;42162;51.958;5.426;2023-11-19T05:30:05;50.83;;;7.13;;
55762;SDS011;42162;51.958;5.426;2023-11-19T05:32:34;48.00;;;5.97;;
55762;SDS011;42162;51.958;5.426;2023-11-19T05:35:01;58.35;;;7.50;;
55762;SDS011;42162;51.958;5.426;2023-11-19T05:37:29;52.33;;;7.40;;
55762;SDS011;42162;51.958;5.426;2023-11-19T05:39:56;38.75;;;6.35;;
55762;SDS011;42162;51.958;5.426;2023-11-19T05:42:23;29.83;;;6.07;;
55762;SDS011;42162;51.958;5.426;2023-11-19T05:44:51;33.85;;;5.75;;
55762;SDS011;42162;51.958;5.426;2023-11-19T05:47:18;43.58;;;7.60;;
55762;SDS011;42162;51.958;5.426;2023-11-19T05:49:46;51.72;;;6.50;;
55762;SDS011;42162;51.958;5.426;2023-11-19T05:52:13;55.03;;;6.68;;
55762;SDS011;42162;51.958;5.426;2023-11-19T05:54:40;35.92;;;6.00;;
55762;SDS011;42162;51.958;5.426;2023-11-19T05:57:08;38.15;;;5.72;;
55762;SDS011;42162;51.958;5.426;2023-11-19T05:59:36;44.40;;;5.75;;
55762;SDS011;42162;51.958;5.426;2023-11-19T06:02:03;39.10;;;7.20;;
55762;SDS011;42162;51.958;5.426;2023-11-19T06:04:30;48.88;;;6.35;;
55762;SDS011;42162;51.958;5.426;2023-11-19T06:06:58;47.38;;;6.32;;
55762;SDS011;42162;51.958;5.426;2023-11-19T06:09:25;57.70;;;7.97;;
55762;SDS011;42162;51.958;5.426;2023-11-19T06:11:53;48.45;;;7.45;;
55762;SDS011;42162;51.958;5.426;2023-11-19T06:14:22;45.35;;;6.90;;
55762;SDS011;42162;51.958;5.426;2023-11-19T06:16:51;54.05;;;7.20;;
55762;SDS011;42162;51.958;5.426;2023-11-19T06:19:19;50.47;;;7.03;;
55762;SDS011;42162;51.958;5.426;2023-11-19T06:21:46;60.30;;;7.72;;
55762;SDS011;42162;51.958;5.426;2023-11-19T06:24:14;43.97;;;6.80;;
55762;SDS011;42162;51.958;5.426;2023-11-19T06:26:41;57.60;;;8.57;;
55762;SDS011;42162;51.958;5.426;2023-11-19T06:29:09;43.50;;;6.22;;
55762;SDS011;42162;51.958;5.426;2023-11-19T06:31:36;46.17;;;7.05;;
55762;SDS011;42162;51.958;5.426;2023-11-19T06:34:04;44.00;;;7.35;;
55762;SDS011;42162;51.958;5.426;2023-11-19T06:36:31;42.50;;;6.50;;
55762;SDS011;42162;51.958;5.426;2023-11-19T06:38:58;46.83;;;8.02;;
55762;SDS011;42162;51.958;5.426;2023-11-19T06:41:26;40.65;;;6.95;;
55762;SDS011;42162;51.958;5.426;2023-11-19T06:43:55;64.53;;;8.48;;
55762;SDS011;42162;51.958;5.426;2023-11-19T06:46:23;44.35;;;7.53;;
55762;SDS011;42162;51.958;5.426;2023-11-19T06:48:50;47.83;;;6.07;;
55762;SDS011;42162;51.958;5.426;2023-11-19T06:51:18;51.92;;;7.20;;
55762;SDS011;42162;51.958;5.426;2023-11-19T06:53:45;55.92;;;7.40;;
55762;SDS011;42162;51.958;5.426;2023-11-19T06:56:19;36.13;;;5.93;;
55762;SDS011;42162;51.958;5.426;2023-11-19T06:58:48;46.10;;;5.60;;
55762;SDS011;42162;51.958;5.426;2023-11-19T07:01:16;56.72;;;6.70;;
55762;SDS011;42162;51.958;5.426;2023-11-19T07:03:45;44.47;;;6.13;;
55762;SDS011;42162;51.958;5.426;2023-11-19T07:06:13;47.85;;;7.82;;
55762;SDS011;42162;51.958;5.426;2023-11-19T07:08:41;33.80;;;5.80;;
55762;SDS011;42162;51.958;5.426;2023-11-19T07:11:12;55.88;;;7.68;;
55762;SDS011;42162;51.958;5.426;2023-11-19T07:13:41;42.92;;;7.10;;
55762;SDS011;42162;51.958;5.426;2023-11-19T07:16:09;51.78;;;7.75;;
55762;SDS011;42162;51.958;5.426;2023-11-19T07:18:39;28.80;;;5.20;;
55762;SDS011;42162;51.958;5.426;2023-11-19T07:21:06;45.00;;;7.20;;
55762;SDS011;42162;51.958;5.426;2023-11-19T07:23:37;40.03;;;6.97;;
55762;SDS011;42162;51.958;5.426;2023-11-19T07:26:05;44.97;;;6.10;;
55762;SDS011;42162;51.958;5.426;2023-11-19T07:28:35;34.92;;;5.65;;
55762;SDS011;42162;51.958;5.426;2023-11-19T07:31:02;43.05;;;6.80;;
55762;SDS011;42162;51.958;5.426;2023-11-19T07:33:29;39.47;;;6.00;;
55762;SDS011;42162;51.958;5.426;2023-11-19T07:35:56;46.40;;;7.13;;
55762;SDS011;42162;51.958;5.426;2023-11-19T07:38:24;45.55;;;6.88;;
55762;SDS011;42162;51.958;5.426;2023-11-19T07:40:51;55.83;;;7.00;;
55762;SDS011;42162;51.958;5.426;2023-11-19T07:43:21;53.65;;;8.48;;
55762;SDS011;42162;51.958;5.426;2023-11-19T07:45:48;49.50;;;5.82;;
55762;SDS011;42162;51.958;5.426;2023-11-19T07:48:15;50.65;;;7.15;;
55762;SDS011;42162;51.958;5.426;2023-11-19T07:50:42;47.47;;;6.85;;
55762;SDS011;42162;51.958;5.426;2023-11-19T07:53:09;47.60;;;6.63;;
55762;SDS011;42162;51.958;5.426;2023-11-19T07:55:38;35.58;;;6.70;;
55762;SDS011;42162;51.958;5.426;2023-11-19T07:58:08;43.22;;;6.75;;
55762;SDS011;42162;51.958;5.426;2023-11-19T08:00:36;31.27;;;6.32;;
55762;SDS011;42162;51.958;5.426;2023-11-19T08:03:04;39.47;;;6.13;;
55762;SDS011;42162;51.958;5.426;2023-11-19T08:05:31;43.58;;;7.15;;
55762;SDS011;42162;51.958;5.426;2023-11-19T08:07:59;40.83;;;6.53;;
55762;SDS011;42162;51.958;5.426;2023-11-19T08:10:26;41.70;;;6.85;;
55762;SDS011;42162;51.958;5.426;2023-11-19T08:12:53;48.50;;;5.82;;
55762;SDS011;42162;51.958;5.426;2023-11-19T08:15:20;31.92;;;5.60;;
55762;SDS011;42162;51.958;5.426;2023-11-19T08:17:50;36.28;;;5.95;;
55762;SDS011;42162;51.958;5.426;2023-11-19T08:20:18;38.47;;;5.85;;
55762;SDS011;42162;51.958;5.426;2023-11-19T08:22:45;49.50;;;6.30;;
55762;SDS011;42162;51.958;5.426;2023-11-19T08:25:12;46.85;;;6.57;;
55762;SDS011;42162;51.958;5.426;2023-11-19T08:27:39;40.45;;;5.95;;
55762;SDS011;42162;51.958;5.426;2023-11-19T08:30:07;38.72;;;5.43;;
55762;SDS011;42162;51.958;5.426;2023-11-19T08:32:34;49.20;;;6.30;;
55762;SDS011;42162;51.958;5.426;2023-11-19T08:35:02;37.75;;;5.60;;
55762;SDS011;42162;51.958;5.426;2023-11-19T08:37:29;38.20;;;5.43;;
55762;SDS011;42162;51.958;5.426;2023-11-19T08:39:57;42.35;;;5.53;;
55762;SDS011;42162;51.958;5.426;2023-11-19T08:42:24;36.67;;;6.00;;
55762;SDS011;42162;51.958;5.426;2023-11-19T08:44:51;40.65;;;6.28;;
55762;SDS011;42162;51.958;5.426;2023-11-19T08:47:21;41.00;;;6.13;;
55762;SDS011;42162;51.958;5.426;2023-11-19T08:49:52;37.58;;;5.80;;
55762;SDS011;42162;51.958;5.426;2023-11-19T08:52:23;38.28;;;6.25;;
55762;SDS011;42162;51.958;5.426;2023-11-19T08:54:50;42.60;;;5.57;;
55762;SDS011;42162;51.958;5.426;2023-11-19T08:57:17;34.80;;;7.28;;
55762;SDS011;42162;51.958;5.426;2023-11-19T08:59:44;40.90;;;5.97;;
55762;SDS011;42162;51.958;5.426;2023-11-19T09:02:12;40.45;;;6.15;;
55762;SDS011;42162;51.958;5.426;2023-11-19T09:04:40;38.92;;;7.25;;
55762;SDS011;42162;51.958;5.426;2023-11-19T09:07:08;44.17;;;6.72;;
55762;SDS011;42162;51.958;5.426;2023-11-19T09:09:38;51.95;;;5.97;;
55762;SDS011;42162;51.958;5.426;2023-11-19T09:12:05;35.88;;;5.38;;
55762;SDS011;42162;51.958;5.426;2023-11-19T09:14:33;36.53;;;5.97;;
55762;SDS011;42162;51.958;5.426;2023-11-19T09:17:00;35.17;;;6.45;;
55762;SDS011;42162;51.958;5.426;2023-11-19T09:19:27;45.40;;;6.45;;
55762;SDS011;42162;51.958;5.426;2023-11-19T09:21:54;40.55;;;5.65;;
55762;SDS011;42162;51.958;5.426;2023-11-19T09:24:22;41.13;;;5.97;;
55762;SDS011;42162;51.958;5.426;2023-11-19T09:26:49;41.15;;;6.95;;
55762;SDS011;42162;51.958;5.426;2023-11-19T09:29:16;38.45;;;5.25;;
55762;SDS011;42162;51.958;5.426;2023-11-19T09:31:44;38.28;;;5.80;;
55762;SDS011;42162;51.958;5.426;2023-11-19T09:34:11;36.80;;;6.50;;
55762;SDS011;42162;51.958;5.426;2023-11-19T09:36:38;43.78;;;7.07;;
55762;SDS011;42162;51.958;5.426;2023-11-19T09:39:11;43.50;;;7.07;;
55762;SDS011;42162;51.958;5.426;2023-11-19T09:41:40;31.35;;;5.60;;
55762;SDS011;42162;51.958;5.426;2023-11-19T09:44:08;45.33;;;5.78;;
55762;SDS011;42162;51.958;5.426;2023-11-19T09:46:36;31.67;;;6.38;;
55762;SDS011;42162;51.958;5.426;2023-11-19T09:49:04;43.28;;;6.22;;
55762;SDS011;42162;51.958;5.426;2023-11-19T09:51:35;35.10;;;5.50;;
55762;SDS011;42162;51.958;5.426;2023-11-19T09:54:03;35.10;;;5.85;;
55762;SDS011;42162;51.958;5.426;2023-11-19T09:56:33;38.80;;;6.63;;
55762;SDS011;42162;51.958;5.426;2023-11-19T09:59:03;43.10;;;7.75;;
55762;SDS011;42162;51.958;5.426;2023-11-19T10:01:32;39.95;;;5.65;;
55762;SDS011;42162;51.958;5.426;2023-11-19T10:04:00;47.38;;;5.53;;
55762;SDS011;42162;51.958;5.426;2023-11-19T10:06:28;35.03;;;5.28;;
55762;SDS011;42162;51.958;5.426;2023-11-19T10:08:56;44.33;;;6.60;;
55762;SDS011;42162;51.958;5.426;2023-11-19T10:11:23;40.47;;;6.85;;
55762;SDS011;42162;51.958;5.426;2023-11-19T10:13:52;37.53;;;6.00;;
55762;SDS011;42162;51.958;5.426;2023-11-19T10:16:20;56.35;;;6.75;;
55762;SDS011;42162;51.958;5.426;2023-11-19T10:18:55;36.60;;;5.82;;
55762;SDS011;42162;51.958;5.426;2023-11-19T10:21:22;39.15;;;5.80;;
55762;SDS011;42162;51.958;5.426;2023-11-19T10:23:51;31.73;;;5.22;;
55762;SDS011;42162;51.958;5.426;2023-11-19T10:26:20;29.90;;;4.93;;
55762;SDS011;42162;51.958;5.426;2023-11-19T10:28:47;33.90;;;5.75;;
55762;SDS011;42162;51.958;5.426;2023-11-19T10:31:16;35.00;;;5.30;;
55762;SDS011;42162;51.958;5.426;2023-11-19T10:33:45;33.28;;;5.38;;
55762;SDS011;42162;51.958;5.426;2023-11-19T10:36:12;35.58;;;6.25;;
55762;SDS011;42162;51.958;5.426;2023-11-19T10:38:41;27.55;;;4.38;;
55762;SDS011;42162;51.958;5.426;2023-11-19T10:41:28;37.95;;;5.63;;
55762;SDS011;42162;51.958;5.426;2023-11-19T10:43:58;39.92;;;6.13;;
55762;SDS011;42162;51.958;5.426;2023-11-19T10:46:39;30.67;;;6.95;;
55762;SDS011;42162;51.958;5.426;2023-11-19T10:49:07;31.27;;;5.15;;
55762;SDS011;42162;51.958;5.426;2023-11-19T10:51:35;36.65;;;5.38;;
55762;SDS011;42162;51.958;5.426;2023-11-19T10:54:03;35.08;;;5.35;;
55762;SDS011;42162;51.958;5.426;2023-11-19T10:56:34;46.97;;;5.32;;
55762;SDS011;42162;51.958;5.426;2023-11-19T10:59:02;30.10;;;4.97;;
55762;SDS011;42162;51.958;5.426;2023-11-19T11:01:50;34.15;;;5.22;;
55762;SDS011;42162;51.958;5.426;2023-11-19T11:04:24;32.33;;;5.00;;
55762;SDS011;42162;51.958;5.426;2023-11-19T11:06:54;38.55;;;5.30;;
55762;SDS011;42162;51.958;5.426;2023-11-19T11:09:28;43.60;;;6.60;;
55762;SDS011;42162;51.958;5.426;2023-11-19T11:11:57;32.60;;;5.18;;
55762;SDS011;42162;51.958;5.426;2023-11-19T11:14:25;27.33;;;5.43;;
55762;SDS011;42162;51.958;5.426;2023-11-19T11:16:53;36.67;;;5.60;;
55762;SDS011;42162;51.958;5.426;2023-11-19T11:19:23;45.97;;;6.35;;
55762;SDS011;42162;51.958;5.426;2023-11-19T11:21:52;42.25;;;5.85;;
55762;SDS011;42162;51.958;5.426;2023-11-19T11:33:01;36.33;;;6.30;;
55762;SDS011;42162;51.958;5.426;2023-11-19T11:38:08;29.83;;;5.13;;
55762;SDS011;42162;51.958;5.426;2023-11-19T11:40:36;41.63;;;5.88;;
55762;SDS011;42162;51.958;5.426;2023-11-19T11:43:03;28.10;;;4.75;;
55762;SDS011;42162;51.958;5.426;2023-11-19T11:45:35;28.63;;;4.38;;
55762;SDS011;42162;51.958;5.426;2023-11-19T11:48:16;24.13;;;4.68;;
55762;SDS011;42162;51.958;5.426;2023-11-19T11:50:53;21.58;;;4.75;;
55762;SDS011;42162;51.958;5.426;2023-11-19T11:53:24;28.23;;;5.20;;
55762;SDS011;42162;51.958;5.426;2023-11-19T11:55:52;24.77;;;3.75;;
55762;SDS011;42162;51.958;5.426;2023-11-19T11:58:29;25.58;;;4.07;;
55762;SDS011;42162;51.958;5.426;2023-11-19T12:00:58;21.52;;;4.88;;
55762;SDS011;42162;51.958;5.426;2023-11-19T12:03:30;27.87;;;4.60;;
55762;SDS011;42162;51.958;5.426;2023-11-19T12:06:00;28.02;;;4.80;;
55762;SDS011;42162;51.958;5.426;2023-11-19T12:08:31;28.75;;;5.25;;
55762;SDS011;42162;51.958;5.426;2023-11-19T12:11:19;28.58;;;4.72;;
55762;SDS011;42162;51.958;5.426;2023-11-19T12:13:52;21.95;;;3.72;;
55762;SDS011;42162;51.958;5.426;2023-11-19T12:16:26;31.05;;;4.38;;
55762;SDS011;42162;51.958;5.426;2023-11-19T12:18:56;22.55;;;3.90;;
55762;SDS011;42162;51.958;5.426;2023-11-19T12:21:27;25.20;;;4.85;;
55762;SDS011;42162;51.958;5.426;2023-11-19T12:23:57;21.10;;;3.83;;
55762;SDS011;42162;51.958;5.426;2023-11-19T12:26:31;26.80;;;4.68;;
55762;SDS011;42162;51.958;5.426;2023-11-19T12:29:03;26.83;;;4.85;;
55762;SDS011;42162;51.958;5.426;2023-11-19T12:31:34;25.23;;;5.30;;
55762;SDS011;42162;51.958;5.426;2023-11-19T12:34:06;31.63;;;6.03;;
55762;SDS011;42162;51.958;5.426;2023-11-19T12:36:39;27.45;;;4.57;;
55762;SDS011;42162;51.958;5.426;2023-11-19T12:39:08;27.83;;;5.43;;
55762;SDS011;42162;51.958;5.426;2023-11-19T12:41:48;26.42;;;5.65;;
55762;SDS011;42162;51.958;5.426;2023-11-19T12:44:17;31.73;;;5.53;;
55762;SDS011;42162;51.958;5.426;2023-11-19T12:46:44;23.15;;;5.70;;
55762;SDS011;42162;51.958;5.426;2023-11-19T12:49:11;20.60;;;4.25;;
55762;SDS011;42162;51.958;5.426;2023-11-19T12:51:38;28.90;;;5.10;;
55762;SDS011;42162;51.958;5.426;2023-11-19T12:54:05;33.83;;;5.40;;
55762;SDS011;42162;51.958;5.426;2023-11-19T12:56:32;24.40;;;4.45;;
55762;SDS011;42162;51.958;5.426;2023-11-19T12:59:09;34.38;;;5.80;;
55762;SDS011;42162;51.958;5.426;2023-11-19T13:01:38;30.30;;;5.60;;
55762;SDS011;42162;51.958;5.426;2023-11-19T13:04:16;25.13;;;3.75;;
55762;SDS011;42162;51.958;5.426;2023-11-19T13:06:46;32.70;;;5.75;;
55762;SDS011;42162;51.958;5.426;2023-11-19T13:09:31;25.20;;;5.05;;
55762;SDS011;42162;51.958;5.426;2023-11-19T13:11:59;35.63;;;5.45;;
55762;SDS011;42162;51.958;5.426;2023-11-19T13:14:36;27.35;;;4.93;;
55762;SDS011;42162;51.958;5.426;2023-11-19T13:17:05;27.75;;;4.88;;
55762;SDS011;42162;51.958;5.426;2023-11-19T13:19:32;29.83;;;4.85;;
55762;SDS011;42162;51.958;5.426;2023-11-19T13:21:59;37.10;;;5.10;;
55762;SDS011;42162;51.958;5.426;2023-11-19T13:24:26;35.72;;;5.05;;
55762;SDS011;42162;51.958;5.426;2023-11-19T13:26:54;29.77;;;4.95;;
55762;SDS011;42162;51.958;5.426;2023-11-19T13:29:22;31.98;;;5.28;;
55762;SDS011;42162;51.958;5.426;2023-11-19T13:31:49;34.22;;;5.63;;
55762;SDS011;42162;51.958;5.426;2023-11-19T13:34:16;23.92;;;4.75;;
55762;SDS011;42162;51.958;5.426;2023-11-19T13:36:44;32.20;;;5.03;;
55762;SDS011;42162;51.958;5.426;2023-11-19T13:39:11;30.42;;;5.10;;
55762;SDS011;42162;51.958;5.426;2023-11-19T13:41:39;23.60;;;4.85;;
55762;SDS011;42162;51.958;5.426;2023-11-19T13:44:06;26.40;;;4.43;;
55762;SDS011;42162;51.958;5.426;2023-11-19T13:46:34;36.10;;;5.20;;
55762;SDS011;42162;51.958;5.426;2023-11-19T13:49:01;32.47;;;4.35;;
55762;SDS011;42162;51.958;5.426;2023-11-19T13:51:30;20.33;;;4.47;;
55762;SDS011;42162;51.958;5.426;2023-11-19T13:53:57;33.00;;;3.92;;
55762;SDS011;42162;51.958;5.426;2023-11-19T13:56:24;26.02;;;4.38;;
55762;SDS011;42162;51.958;5.426;2023-11-19T13:58:51;30.08;;;4.32;;
55762;SDS011;42162;51.958;5.426;2023-11-19T14:01:20;25.25;;;4.55;;
55762;SDS011;42162;51.958;5.426;2023-11-19T14:03:50;29.30;;;4.07;;
55762;SDS011;42162;51.958;5.426;2023-11-19T14:06:17;32.38;;;4.28;;
55762;SDS011;42162;51.958;5.426;2023-11-19T14:08:44;25.88;;;4.20;;
55762;SDS011;42162;51.958;5.426;2023-11-19T14:11:11;26.33;;;4.53;;
55762;SDS011;42162;51.958;5.426;2023-11-19T14:13:39;30.42;;;4.38;;
55762;SDS011;42162;51.958;5.426;2023-11-19T14:16:06;28.33;;;5.00;;
55762;SDS011;42162;51.958;5.426;2023-11-19T14:18:36;31.85;;;4.75;;
55762;SDS011;42162;51.958;5.426;2023-11-19T14:21:03;28.05;;;5.55;;
55762;SDS011;42162;51.958;5.426;2023-11-19T14:23:30;21.00;;;4.25;;
55762;SDS011;42162;51.958;5.426;2023-11-19T14:25:57;27.98;;;5.03;;
55762;SDS011;42162;51.958;5.426;2023-11-19T14:28:25;21.70;;;4.45;;
55762;SDS011;42162;51.958;5.426;2023-11-19T14:30:53;24.05;;;4.45;;
55762;SDS011;42162;51.958;5.426;2023-11-19T14:33:24;23.08;;;5.03;;
55762;SDS011;42162;51.958;5.426;2023-11-19T14:35:51;23.98;;;4.05;;
55762;SDS011;42162;51.958;5.426;2023-11-19T14:38:18;32.85;;;5.55;;
55762;SDS011;42162;51.958;5.426;2023-11-19T14:40:46;31.58;;;5.03;;
55762;SDS011;42162;51.958;5.426;2023-11-19T14:43:13;28.65;;;5.82;;
55762;SDS011;42162;51.958;5.426;2023-11-19T14:45:42;18.85;;;3.95;;
55762;SDS011;42162;51.958;5.426;2023-11-19T14:48:16;22.50;;;3.50;;
55762;SDS011;42162;51.958;5.426;2023-11-19T14:50:44;30.48;;;3.92;;
55762;SDS011;42162;51.958;5.426;2023-11-19T14:53:12;26.65;;;4.22;;
55762;SDS011;42162;51.958;5.426;2023-11-19T14:55:39;29.63;;;4.88;;